sensor_id;sensor_type;location;lat;lon;timestamp;pressure;altitude;pressure_sealevel;temperature;humidity
57374;BME280;43964;53.890;25.340;2024-02-16T00:04:15;1032;;;4.1;62.1
57374;BME280;43964;53.890;25.340;2024-02-16T00:09:53;1032;;;4.1;62.1
57374;BME280;43964;53.890;25.340;2024-02-16T00:14:53;1032;;;4.1;62.1
57374;BME280;43964;53.890;25.340;2024-02-16T00:19:29;1032;;;4.1;62
57374;BME280;43964;53.890;25.340;2024-02-16T00:24:53;1031.9;;;4.1;62
57374;BME280;43964;53.890;25.340;2024-02-16T00:29:21;1031.9;;;4.1;62
57374;BME280;43964;53.890;25.340;2024-02-16T00:34:09;1031.9;;;4.1;62
57374;BME280;43964;53.890;25.340;2024-02-16T00:39:09;1031.9;;;4.2;61.9
57374;BME280;43964;53.890;25.340;2024-02-16T00:44:15;1031.8;;;4.2;61.9
57374;BME280;43964;53.890;25.340;2024-02-16T00:49:09;1031.8;;;4.2;61.9
57374;BME280;43964;53.890;25.340;2024-02-16T00:54:53;1031.8;;;4.3;61.9
57374;BME280;43964;53.890;25.340;2024-02-16T00:59:27;1031.8;;;4.3;61.8
57374;BME280;43964;53.890;25.340;2024-02-16T01:04:53;1031.8;;;4.2;61.8
57374;BME280;43964;53.890;25.340;2024-02-16T01:09:41;1031.7;;;4.2;61.9
57374;BME280;43964;53.890;25.340;2024-02-16T01:14:15;1031.7;;;4.1;61.9
57374;BME280;43964;53.890;25.340;2024-02-16T01:19:25;1031.6;;;4.1;62
57374;BME280;43964;53.890;25.340;2024-02-16T01:24:11;1031.6;;;4.1;62
57374;BME280;43964;53.890;25.340;2024-02-16T01:29:45;1031.6;;;4.1;62.1
57374;BME280;43964;53.890;25.340;2024-02-16T01:39:45;1031.6;;;4.2;62.1
57374;BME280;43964;53.890;25.340;2024-02-16T01:44:41;1031.7;;;4.3;62.1
57374;BME280;43964;53.890;25.340;2024-02-16T01:49:53;1031.7;;;4.3;62
57374;BME280;43964;53.890;25.340;2024-02-16T01:54:45;1031.8;;;4.3;62
57374;BME280;43964;53.890;25.340;2024-02-16T01:59:27;1031.8;;;4.5;61.9
57374;BME280;43964;53.890;25.340;2024-02-16T02:04:47;1031.8;;;4.5;61.5
57374;BME280;43964;53.890;25.340;2024-02-16T02:09:09;1031.8;;;4.4;61.7
57374;BME280;43964;53.890;25.340;2024-02-16T02:14:45;1031.7;;;4.4;61.8
57374;BME280;43964;53.890;25.340;2024-02-16T02:19:33;1031.8;;;4.4;61.7
57374;BME280;43964;53.890;25.340;2024-02-16T02:24:09;1031.8;;;4.5;61.7
57374;BME280;43964;53.890;25.340;2024-02-16T02:29:09;1031.7;;;4.5;61.7
57374;BME280;43964;53.890;25.340;2024-02-16T02:34:41;1031.7;;;4.5;61.7
57374;BME280;43964;53.890;25.340;2024-02-16T02:39:53;1031.7;;;4.6;61.7
57374;BME280;43964;53.890;25.340;2024-02-16T02:44:53;1031.8;;;4.6;61.6
57374;BME280;43964;53.890;25.340;2024-02-16T02:49:21;1031.7;;;4.6;61.5
57374;BME280;43964;53.890;25.340;2024-02-16T02:54:33;1031.7;;;4.6;61.6
57374;BME280;43964;53.890;25.340;2024-02-16T02:59:53;1031.7;;;4.6;61.5
57374;BME280;43964;53.890;25.340;2024-02-16T03:04:35;1031.7;;;4.6;61.4
57374;BME280;43964;53.890;25.340;2024-02-16T03:09:25;1031.7;;;4.6;61.4
57374;BME280;43964;53.890;25.340;2024-02-16T03:14:33;1031.8;;;4.6;61.4
57374;BME280;43964;53.890;25.340;2024-02-16T03:19:41;1031.8;;;4.6;61.5
57374;BME280;43964;53.890;25.340;2024-02-16T03:24:53;1031.8;;;4.7;61.5
57374;BME280;43964;53.890;25.340;2024-02-16T03:29:15;1031.8;;;4.7;61.4
57374;BME280;43964;53.890;25.340;2024-02-16T03:34:45;1031.8;;;4.7;61.4
57374;BME280;43964;53.890;25.340;2024-02-16T03:39:15;1031.8;;;4.7;61.4
57374;BME280;43964;53.890;25.340;2024-02-16T03:44:15;1031.8;;;4.7;61.2
57374;BME280;43964;53.890;25.340;2024-02-16T03:49:09;1031.8;;;4.6;61.2
57374;BME280;43964;53.890;25.340;2024-02-16T03:54:25;1031.7;;;4.6;61.2
57374;BME280;43964;53.890;25.340;2024-02-16T03:59:27;1031.7;;;4.6;61.2
57374;BME280;43964;53.890;25.340;2024-02-16T04:04:33;1031.7;;;4.6;61.3
57374;BME280;43964;53.890;25.340;2024-02-16T04:09:53;1031.7;;;4.6;61.3
57374;BME280;43964;53.890;25.340;2024-02-16T04:14:53;1031.7;;;4.7;61.3
57374;BME280;43964;53.890;25.340;2024-02-16T04:19:53;1031.6;;;4.7;61.2
57374;BME280;43964;53.890;25.340;2024-02-16T04:24:15;1031.7;;;4.6;61.1
57374;BME280;43964;53.890;25.340;2024-02-16T04:29:33;1031.7;;;4.5;61.2
57374;BME280;43964;53.890;25.340;2024-02-16T04:34:33;1031.6;;;4.6;61.2
57374;BME280;43964;53.890;25.340;2024-02-16T04:39:53;1031.7;;;4.7;61.1
57374;BME280;43964;53.890;25.340;2024-02-16T04:44:53;1031.7;;;4.8;61
57374;BME280;43964;53.890;25.340;2024-02-16T04:49:33;1031.7;;;4.8;60.9
57374;BME280;43964;53.890;25.340;2024-02-16T04:54:09;1031.7;;;4.8;60.8
57374;BME280;43964;53.890;25.340;2024-02-16T04:59:53;1031.7;;;4.8;60.9
57374;BME280;43964;53.890;25.340;2024-02-16T05:04:41;1031.7;;;4.8;60.9
57374;BME280;43964;53.890;25.340;2024-02-16T05:09:53;1031.8;;;4.8;60.8
57374;BME280;43964;53.890;25.340;2024-02-16T05:14:35;1031.8;;;4.8;60.7
57374;BME280;43964;53.890;25.340;2024-02-16T05:19:43;1031.7;;;4.8;60.7
57374;BME280;43964;53.890;25.340;2024-02-16T05:24:09;1031.7;;;4.7;60.7
57374;BME280;43964;53.890;25.340;2024-02-16T05:29:35;1031.7;;;4.7;60.6
57374;BME280;43964;53.890;25.340;2024-02-16T05:34:17;1031.7;;;4.7;60.6
57374;BME280;43964;53.890;25.340;2024-02-16T05:39:09;1031.7;;;4.7;60.5
57374;BME280;43964;53.890;25.340;2024-02-16T05:44:09;1031.8;;;4.6;60.6
57374;BME280;43964;53.890;25.340;2024-02-16T05:49:17;1031.9;;;4.6;60.9
57374;BME280;43964;53.890;25.340;2024-02-16T05:54:43;1031.9;;;4.6;60.8
57374;BME280;43964;53.890;25.340;2024-02-16T05:59:23;1032;;;4.7;60.8
57374;BME280;43964;53.890;25.340;2024-02-16T06:04:47;1032;;;4.8;60.8
57374;BME280;43964;53.890;25.340;2024-02-16T06:09:43;1032.1;;;4.7;60.5
57374;BME280;43964;53.890;25.340;2024-02-16T06:14:47;1032;;;4.5;60.6
57374;BME280;43964;53.890;25.340;2024-02-16T06:19:47;1032.1;;;4.6;60.8
57374;BME280;43964;53.890;25.340;2024-02-16T06:24:55;1032.2;;;4.6;60.8
57374;BME280;43964;53.890;25.340;2024-02-16T06:29:55;1032.2;;;4.7;60.8
57374;BME280;43964;53.890;25.340;2024-02-16T06:34:55;1032.2;;;4.7;60.7
57374;BME280;43964;53.890;25.340;2024-02-16T06:39:25;1032.2;;;4.8;60.6
57374;BME280;43964;53.890;25.340;2024-02-16T06:44:55;1032.2;;;4.9;60.4
57374;BME280;43964;53.890;25.340;2024-02-16T06:49:55;1032.2;;;4.9;60.4
57374;BME280;43964;53.890;25.340;2024-02-16T06:54:43;1032.2;;;5;60.2
57374;BME280;43964;53.890;25.340;2024-02-16T06:59:55;1032.2;;;5;60.2
57374;BME280;43964;53.890;25.340;2024-02-16T07:04:09;1032.3;;;5;60.2
57374;BME280;43964;53.890;25.340;2024-02-16T07:14:35;1032.3;;;5.1;60.1
57374;BME280;43964;53.890;25.340;2024-02-16T07:19:09;1032.3;;;5.1;59.8
57374;BME280;43964;53.890;25.340;2024-02-16T07:24:09;1032.3;;;5.2;59.7
57374;BME280;43964;53.890;25.340;2024-02-16T07:29:36;1032.3;;;5.3;59.7
57374;BME280;43964;53.890;25.340;2024-02-16T07:34:45;1032.3;;;5.4;59.6
57374;BME280;43964;53.890;25.340;2024-02-16T07:39:55;1032.3;;;5.5;59.5
57374;BME280;43964;53.890;25.340;2024-02-16T07:44:55;1032.3;;;5.6;59.4
57374;BME280;43964;53.890;25.340;2024-02-16T07:49:37;1032.3;;;5.7;59.2
57374;BME280;43964;53.890;25.340;2024-02-16T07:54:17;1032.3;;;5.8;58.8
57374;BME280;43964;53.890;25.340;2024-02-16T07:59:35;1032.4;;;5.8;58.7
57374;BME280;43964;53.890;25.340;2024-02-16T08:04:55;1032.4;;;6;58.7
57374;BME280;43964;53.890;25.340;2024-02-16T08:09:55;1032.4;;;6.2;58.6
57374;BME280;43964;53.890;25.340;2024-02-16T08:14:27;1032.4;;;6.4;58.5
57374;BME280;43964;53.890;25.340;2024-02-16T08:19:55;1032.4;;;6.4;58.3
57374;BME280;43964;53.890;25.340;2024-02-16T08:24:55;1032.4;;;6.6;58.2
57374;BME280;43964;53.890;25.340;2024-02-16T08:29:43;1032.5;;;6.9;58
57374;BME280;43964;53.890;25.340;2024-02-16T08:34:55;1032.5;;;7;57.8
57374;BME280;43964;53.890;25.340;2024-02-16T08:39:09;1032.4;;;7.1;57.5
57374;BME280;43964;53.890;25.340;2024-02-16T08:44:27;1032.4;;;7.1;57.1
57374;BME280;43964;53.890;25.340;2024-02-16T08:49:15;1032.4;;;7.1;57.2
57374;BME280;43964;53.890;25.340;2024-02-16T08:54:19;1032.4;;;7.2;57
57374;BME280;43964;53.890;25.340;2024-02-16T08:59:17;1032.4;;;7.2;56.8
57374;BME280;43964;53.890;25.340;2024-02-16T09:04:29;1032.5;;;7.3;56.4
57374;BME280;43964;53.890;25.340;2024-02-16T09:09:09;1032.4;;;7.3;55.8
57374;BME280;43964;53.890;25.340;2024-02-16T09:14:55;1032.4;;;7.3;55.9
57374;BME280;43964;53.890;25.340;2024-02-16T09:19:43;1032.4;;;7.5;55.8
57374;BME280;43964;53.890;25.340;2024-02-16T09:24:15;1032.4;;;7.5;55.7
57374;BME280;43964;53.890;25.340;2024-02-16T09:29:39;1032.4;;;7.5;55.7
57374;BME280;43964;53.890;25.340;2024-02-16T09:34:17;1032.4;;;7.7;55.5
57374;BME280;43964;53.890;25.340;2024-02-16T09:39:37;1032.4;;;7.7;55.3
57374;BME280;43964;53.890;25.340;2024-02-16T09:44:55;1032.4;;;7.7;55.3
57374;BME280;43964;53.890;25.340;2024-02-16T09:49:47;1032.4;;;7.7;55.1
57374;BME280;43964;53.890;25.340;2024-02-16T09:54:43;1032.4;;;7.8;54.9
57374;BME280;43964;53.890;25.340;2024-02-16T09:59:55;1032.4;;;7.7;54.3
57374;BME280;43964;53.890;25.340;2024-02-16T10:04:17;1032.3;;;7.7;54.1
57374;BME280;43964;53.890;25.340;2024-02-16T10:09:47;1032.3;;;7.7;54.2
57374;BME280;43964;53.890;25.340;2024-02-16T10:19:54;1032.3;;;7.8;54.1
57374;BME280;43964;53.890;25.340;2024-02-16T10:24:21;1032.2;;;7.8;53.7
57374;BME280;43964;53.890;25.340;2024-02-16T10:29:10;1032.2;;;7.8;53.4
57374;BME280;43964;53.890;25.340;2024-02-16T10:34:21;1032.2;;;7.9;53.6
57374;BME280;43964;53.890;25.340;2024-02-16T10:44:11;1032.2;;;8.2;53.5
57374;BME280;43964;53.890;25.340;2024-02-16T10:49:55;1032.1;;;8.2;53.4
57374;BME280;43964;53.890;25.340;2024-02-16T10:54:55;1032.1;;;8.3;53.3
57374;BME280;43964;53.890;25.340;2024-02-16T10:59:10;1032;;;8.4;53.2
57374;BME280;43964;53.890;25.340;2024-02-16T11:04:36;1032;;;8.7;52.5
57374;BME280;43964;53.890;25.340;2024-02-16T11:09:55;1031.9;;;8.8;52.2
57374;BME280;43964;53.890;25.340;2024-02-16T11:14:47;1031.9;;;8.9;51.9
57374;BME280;43964;53.890;25.340;2024-02-16T11:19:35;1031.9;;;9;52
57374;BME280;43964;53.890;25.340;2024-02-16T11:24:36;1031.9;;;9.2;51.8
57374;BME280;43964;53.890;25.340;2024-02-16T11:29:29;1031.8;;;9.4;51.7
57374;BME280;43964;53.890;25.340;2024-02-16T11:34:55;1031.8;;;9.6;51.7
57374;BME280;43964;53.890;25.340;2024-02-16T11:39:17;1031.7;;;9.7;51.8
57374;BME280;43964;53.890;25.340;2024-02-16T11:44:55;1031.6;;;9.7;51.4
57374;BME280;43964;53.890;25.340;2024-02-16T11:49:09;1031.6;;;9.7;51.3
57374;BME280;43964;53.890;25.340;2024-02-16T11:54:45;1031.5;;;9.7;51.3
57374;BME280;43964;53.890;25.340;2024-02-16T11:59:49;1031.5;;;9.8;51.4
57374;BME280;43964;53.890;25.340;2024-02-16T12:04:18;1031.5;;;9.9;51.2
57374;BME280;43964;53.890;25.340;2024-02-16T12:09:35;1031.5;;;9.9;51
57374;BME280;43964;53.890;25.340;2024-02-16T12:14:09;1031.5;;;9.9;50.7
57374;BME280;43964;53.890;25.340;2024-02-16T12:19:53;1031.4;;;10;50.6
57374;BME280;43964;53.890;25.340;2024-02-16T12:24:29;1031.4;;;10.1;50.3
57374;BME280;43964;53.890;25.340;2024-02-16T12:29:53;1031.3;;;10.1;49.9
57374;BME280;43964;53.890;25.340;2024-02-16T12:34:10;1031.2;;;10.1;49.9
57374;BME280;43964;53.890;25.340;2024-02-16T12:39:21;1031.1;;;10.1;49.9
57374;BME280;43964;53.890;25.340;2024-02-16T12:44:53;1031.1;;;9.9;49.8
57374;BME280;43964;53.890;25.340;2024-02-16T12:49:47;1031.1;;;9.9;49.7
57374;BME280;43964;53.890;25.340;2024-02-16T12:54:09;1031;;;10;49.8
57374;BME280;43964;53.890;25.340;2024-02-16T12:59:27;1031;;;10.1;49.7
57374;BME280;43964;53.890;25.340;2024-02-16T13:04:19;1030.9;;;10.1;49.3
57374;BME280;43964;53.890;25.340;2024-02-16T13:09:55;1030.9;;;10;49
57374;BME280;43964;53.890;25.340;2024-02-16T13:14:35;1030.8;;;10;48.9
57374;BME280;43964;53.890;25.340;2024-02-16T13:19:55;1030.8;;;10.1;48.6
57374;BME280;43964;53.890;25.340;2024-02-16T13:24:35;1030.7;;;10;48.3
57374;BME280;43964;53.890;25.340;2024-02-16T13:29:43;1030.7;;;10.1;48.4
57374;BME280;43964;53.890;25.340;2024-02-16T13:34:17;1030.7;;;10;48.1
57374;BME280;43964;53.890;25.340;2024-02-16T13:39:15;1030.7;;;9.9;48.1
57374;BME280;43964;53.890;25.340;2024-02-16T13:44:27;1030.7;;;9.7;48.1
57374;BME280;43964;53.890;25.340;2024-02-16T13:49:29;1030.7;;;9.8;48.2
57374;BME280;43964;53.890;25.340;2024-02-16T13:54:10;1030.7;;;9.7;48.1
57374;BME280;43964;53.890;25.340;2024-02-16T13:59:15;1030.6;;;9.7;47.7
57374;BME280;43964;53.890;25.340;2024-02-16T14:04:56;1030.6;;;9.7;47.7
57374;BME280;43964;53.890;25.340;2024-02-16T14:09:23;1030.6;;;9.6;47.7
57374;BME280;43964;53.890;25.340;2024-02-16T14:14:55;1030.5;;;9.4;47.7
57374;BME280;43964;53.890;25.340;2024-02-16T14:19:43;1030.5;;;9.3;47.6
57374;BME280;43964;53.890;25.340;2024-02-16T14:29:27;1030.4;;;9.2;47.3
57374;BME280;43964;53.890;25.340;2024-02-16T14:34:35;1030.3;;;9.3;47.5
57374;BME280;43964;53.890;25.340;2024-02-16T14:39:27;1030.3;;;9.2;47.6
57374;BME280;43964;53.890;25.340;2024-02-16T14:44:55;1030.3;;;9.2;47.7
57374;BME280;43964;53.890;25.340;2024-02-16T14:49:51;1030.2;;;9.2;47.8
57374;BME280;43964;53.890;25.340;2024-02-16T14:54:43;1030.3;;;9.1;48.2
57374;BME280;43964;53.890;25.340;2024-02-16T14:59:41;1030.4;;;9.1;48.3
57374;BME280;43964;53.890;25.340;2024-02-16T15:04:18;1030.4;;;8.8;48.8
57374;BME280;43964;53.890;25.340;2024-02-16T15:09:55;1030.5;;;8.6;49.4
57374;BME280;43964;53.890;25.340;2024-02-16T15:14:15;1030.4;;;8.4;49.6
57374;BME280;43964;53.890;25.340;2024-02-16T15:19:10;1030.4;;;8.3;49.9
57374;BME280;43964;53.890;25.340;2024-02-16T15:24:09;1030.5;;;8.1;50.2
57374;BME280;43964;53.890;25.340;2024-02-16T15:29:09;1030.5;;;7.9;50.5
57374;BME280;43964;53.890;25.340;2024-02-16T15:34:27;1030.5;;;7.7;51
57374;BME280;43964;53.890;25.340;2024-02-16T15:39:55;1030.5;;;7.4;51.7
57374;BME280;43964;53.890;25.340;2024-02-16T15:44:09;1030.5;;;7.2;52.2
57374;BME280;43964;53.890;25.340;2024-02-16T15:49:56;1030.6;;;7;52.6
57374;BME280;43964;53.890;25.340;2024-02-16T15:54:19;1030.6;;;6.7;52.8
57374;BME280;43964;53.890;25.340;2024-02-16T15:59:23;1030.7;;;6.6;53.2
57374;BME280;43964;53.890;25.340;2024-02-16T16:04:30;1030.7;;;6.5;53.3
57374;BME280;43964;53.890;25.340;2024-02-16T16:09:19;1030.7;;;6.3;53.6
57374;BME280;43964;53.890;25.340;2024-02-16T16:14:51;1030.7;;;6.2;53.7
57374;BME280;43964;53.890;25.340;2024-02-16T16:19:09;1030.8;;;6.1;53.8
57374;BME280;43964;53.890;25.340;2024-02-16T16:24:49;1030.9;;;6;54
57374;BME280;43964;53.890;25.340;2024-02-16T16:29:43;1030.9;;;5.9;54.5
57374;BME280;43964;53.890;25.340;2024-02-16T16:34:57;1030.9;;;5.7;54.8
57374;BME280;43964;53.890;25.340;2024-02-16T16:39:35;1030.9;;;5.6;55.1
57374;BME280;43964;53.890;25.340;2024-02-16T16:44:58;1030.8;;;5.5;55.4
57374;BME280;43964;53.890;25.340;2024-02-16T16:49:10;1030.8;;;5.4;55.6
57374;BME280;43964;53.890;25.340;2024-02-16T16:54:29;1030.8;;;5.3;55.7
57374;BME280;43964;53.890;25.340;2024-02-16T16:59:09;1030.7;;;5.2;55.8
57374;BME280;43964;53.890;25.340;2024-02-16T17:04:22;1030.8;;;5.1;55.9
57374;BME280;43964;53.890;25.340;2024-02-16T17:09:10;1030.9;;;4.9;56.1
57374;BME280;43964;53.890;25.340;2024-02-16T17:14:12;1030.9;;;4.9;56.3
57374;BME280;43964;53.890;25.340;2024-02-16T17:19:24;1030.9;;;4.8;56.5
57374;BME280;43964;53.890;25.340;2024-02-16T17:24:58;1030.9;;;4.7;56.9
57374;BME280;43964;53.890;25.340;2024-02-16T17:29:36;1030.9;;;4.6;57.3
57374;BME280;43964;53.890;25.340;2024-02-16T17:34:25;1030.8;;;4.6;57.7
57374;BME280;43964;53.890;25.340;2024-02-16T17:39:10;1030.8;;;4.4;57
57374;BME280;43964;53.890;25.340;2024-02-16T17:44:30;1030.8;;;4.3;57.7
57374;BME280;43964;53.890;25.340;2024-02-16T17:49:50;1030.8;;;4.2;58.1
57374;BME280;43964;53.890;25.340;2024-02-16T17:54:10;1030.8;;;4.2;58.3
57374;BME280;43964;53.890;25.340;2024-02-16T17:59:38;1030.7;;;4.2;58.2
57374;BME280;43964;53.890;25.340;2024-02-16T18:04:44;1030.7;;;4.2;58.2
57374;BME280;43964;53.890;25.340;2024-02-16T18:09:56;1030.6;;;4.2;58.4
57374;BME280;43964;53.890;25.340;2024-02-16T18:14:36;1030.5;;;4.1;58.8
57374;BME280;43964;53.890;25.340;2024-02-16T18:19:42;1030.5;;;4.1;59
57374;BME280;43964;53.890;25.340;2024-02-16T18:24:37;1030.5;;;4;59.2
57374;BME280;43964;53.890;25.340;2024-02-16T18:29:30;1030.5;;;4;59.4
57374;BME280;43964;53.890;25.340;2024-02-16T18:34:18;1030.5;;;3.9;59.5
57374;BME280;43964;53.890;25.340;2024-02-16T18:39:30;1030.5;;;3.9;59
57374;BME280;43964;53.890;25.340;2024-02-16T18:44:44;1030.4;;;3.8;59.2
57374;BME280;43964;53.890;25.340;2024-02-16T18:49:24;1030.4;;;3.8;59.6
57374;BME280;43964;53.890;25.340;2024-02-16T18:54:36;1030.4;;;3.8;59.8
57374;BME280;43964;53.890;25.340;2024-02-16T18:59:58;1030.4;;;3.7;60
57374;BME280;43964;53.890;25.340;2024-02-16T19:04:58;1030.4;;;3.7;60.1
57374;BME280;43964;53.890;25.340;2024-02-16T19:09:58;1030.4;;;3.7;60.2
57374;BME280;43964;53.890;25.340;2024-02-16T19:14:58;1030.4;;;3.7;60.1
57374;BME280;43964;53.890;25.340;2024-02-16T19:19:38;1030.5;;;3.7;60.1
57374;BME280;43964;53.890;25.340;2024-02-16T19:24:40;1030.5;;;3.7;60
57374;BME280;43964;53.890;25.340;2024-02-16T19:29:22;1030.5;;;3.7;60
57374;BME280;43964;53.890;25.340;2024-02-16T19:34:38;1030.4;;;3.6;60.1
57374;BME280;43964;53.890;25.340;2024-02-16T19:39:10;1030.3;;;3.6;60.1
57374;BME280;43964;53.890;25.340;2024-02-16T19:44:58;1030.3;;;3.5;60.2
57374;BME280;43964;53.890;25.340;2024-02-16T19:49:37;1030.2;;;3.5;60.5
57374;BME280;43964;53.890;25.340;2024-02-16T19:54:52;1030.3;;;3.4;60.7
57374;BME280;43964;53.890;25.340;2024-02-16T19:59:11;1030.3;;;3.4;60.9
57374;BME280;43964;53.890;25.340;2024-02-16T20:04:44;1030.3;;;3.4;61
57374;BME280;43964;53.890;25.340;2024-02-16T20:09:10;1030.3;;;3.4;61.2
57374;BME280;43964;53.890;25.340;2024-02-16T20:14:16;1030.3;;;3.4;61.2
57374;BME280;43964;53.890;25.340;2024-02-16T20:19:18;1030.2;;;3.3;61.1
57374;BME280;43964;53.890;25.340;2024-02-16T20:24:24;1030.1;;;3.3;61.1
57374;BME280;43964;53.890;25.340;2024-02-16T20:29:50;1030.1;;;3.3;61.1
57374;BME280;43964;53.890;25.340;2024-02-16T20:34:10;1030;;;3.3;61.2
57374;BME280;43964;53.890;25.340;2024-02-16T20:39:58;1030;;;3.3;61.2
57374;BME280;43964;53.890;25.340;2024-02-16T20:44:18;1029.9;;;3.3;61.3
57374;BME280;43964;53.890;25.340;2024-02-16T20:49:58;1029.9;;;3.3;61.5
57374;BME280;43964;53.890;25.340;2024-02-16T20:54:50;1029.9;;;3.3;61.6
57374;BME280;43964;53.890;25.340;2024-02-16T20:59:50;1029.9;;;3.2;61.4
57374;BME280;43964;53.890;25.340;2024-02-16T21:04:30;1029.8;;;3.2;61.7
57374;BME280;43964;53.890;25.340;2024-02-16T21:09:24;1029.9;;;3.2;62
57374;BME280;43964;53.890;25.340;2024-02-16T21:14:22;1029.9;;;3.1;61.7
57374;BME280;43964;53.890;25.340;2024-02-16T21:19:58;1029.8;;;3;62
57374;BME280;43964;53.890;25.340;2024-02-16T21:24:36;1029.8;;;3;62.5
57374;BME280;43964;53.890;25.340;2024-02-16T21:29:58;1029.7;;;3;62.5
57374;BME280;43964;53.890;25.340;2024-02-16T21:34:28;1029.7;;;3;62.5
57374;BME280;43964;53.890;25.340;2024-02-16T21:39:44;1029.7;;;3;62.8
57374;BME280;43964;53.890;25.340;2024-02-16T21:44:36;1029.7;;;3;63
57374;BME280;43964;53.890;25.340;2024-02-16T21:49:44;1029.6;;;3;63
57374;BME280;43964;53.890;25.340;2024-02-16T21:54:10;1029.6;;;3;63
57374;BME280;43964;53.890;25.340;2024-02-16T21:59:10;1029.5;;;3;63.1
57374;BME280;43964;53.890;25.340;2024-02-16T22:04:10;1029.4;;;3;63.2
57374;BME280;43964;53.890;25.340;2024-02-16T22:09:10;1029.4;;;3;63.3
57374;BME280;43964;53.890;25.340;2024-02-16T22:14:56;1029.4;;;3;63.6
57374;BME280;43964;53.890;25.340;2024-02-16T22:19:10;1029.4;;;3;63.8
57374;BME280;43964;53.890;25.340;2024-02-16T22:24:56;1029.3;;;3;63.8
57374;BME280;43964;53.890;25.340;2024-02-16T22:29:44;1029.2;;;3;63.9
57374;BME280;43964;53.890;25.340;2024-02-16T22:34:50;1029.2;;;3;64
57374;BME280;43964;53.890;25.340;2024-02-16T22:39:10;1029.1;;;3;64.1
57374;BME280;43964;53.890;25.340;2024-02-16T22:44:38;1029;;;3;64.1
57374;BME280;43964;53.890;25.340;2024-02-16T22:49:58;1029.1;;;2.9;63.9
57374;BME280;43964;53.890;25.340;2024-02-16T22:54:58;1029.1;;;2.9;63.8
57374;BME280;43964;53.890;25.340;2024-02-16T22:59:54;1029;;;2.8;64
57374;BME280;43964;53.890;25.340;2024-02-16T23:04:36;1029;;;2.8;64.3
57374;BME280;43964;53.890;25.340;2024-02-16T23:09:56;1028.9;;;2.8;64.3
57374;BME280;43964;53.890;25.340;2024-02-16T23:14:42;1028.9;;;2.8;64.8
57374;BME280;43964;53.890;25.340;2024-02-16T23:19:56;1028.8;;;2.8;64.9
57374;BME280;43964;53.890;25.340;2024-02-16T23:24:10;1028.8;;;2.9;65
57374;BME280;43964;53.890;25.340;2024-02-16T23:29:10;1028.7;;;2.9;64.7
57374;BME280;43964;53.890;25.340;2024-02-16T23:34:16;1028.6;;;2.8;64.6
57374;BME280;43964;53.890;25.340;2024-02-16T23:39:10;1028.6;;;2.8;64.8
57374;BME280;43964;53.890;25.340;2024-02-16T23:44:16;1028.6;;;2.8;65.1
57374;BME280;43964;53.890;25.340;2024-02-16T23:49:12;1028.5;;;2.9;65.1
57374;BME280;43964;53.890;25.340;2024-02-16T23:54:24;1028.5;;;2.9;65.1
57374;BME280;43964;53.890;25.340;2024-02-16T23:59:56;1028.5;;;2.9;65.1
